sensor_id;sensor_type;location;lat;lon;timestamp;pressure;altitude;pressure_sealevel;temperature;humidity
60642;BME280;46837;52.446;-1.930;2023-01-29T00:00:11;101600.97;;;6.08;77.81
60642;BME280;46837;52.446;-1.930;2023-01-29T00:01:09;101602.08;;;6.06;77.97
60642;BME280;46837;52.446;-1.930;2023-01-29T00:02:09;101605.54;;;6.07;77.98
60642;BME280;46837;52.446;-1.930;2023-01-29T00:03:09;101606.96;;;6.06;78.07
60642;BME280;46837;52.446;-1.930;2023-01-29T00:04:09;101607.64;;;6.10;78.03
60642;BME280;46837;52.446;-1.930;2023-01-29T00:05:09;101607.98;;;6.13;77.90
60642;BME280;46837;52.446;-1.930;2023-01-29T00:06:09;101606.36;;;6.14;77.79
60642;BME280;46837;52.446;-1.930;2023-01-29T00:07:09;101606.79;;;6.09;77.86
60642;BME280;46837;52.446;-1.930;2023-01-29T00:08:09;101605.40;;;6.09;78.08
60642;BME280;46837;52.446;-1.930;2023-01-29T00:09:09;101607.66;;;6.05;78.14
60642;BME280;46837;52.446;-1.930;2023-01-29T00:10:09;101607.09;;;6.06;78.16
60642;BME280;46837;52.446;-1.930;2023-01-29T00:11:09;101606.02;;;6.09;78.11
60642;BME280;46837;52.446;-1.930;2023-01-29T00:12:10;101601.72;;;6.13;78.07
60642;BME280;46837;52.446;-1.930;2023-01-29T00:13:09;101606.00;;;6.12;78.07
60642;BME280;46837;52.446;-1.930;2023-01-29T00:14:09;101600.30;;;6.11;78.05
60642;BME280;46837;52.446;-1.930;2023-01-29T00:15:09;101599.82;;;6.10;78.04
60642;BME280;46837;52.446;-1.930;2023-01-29T00:16:09;101601.85;;;6.11;78.11
60642;BME280;46837;52.446;-1.930;2023-01-29T00:17:09;101599.80;;;6.13;78.12
60642;BME280;46837;52.446;-1.930;2023-01-29T00:18:09;101600.61;;;6.15;78.03
60642;BME280;46837;52.446;-1.930;2023-01-29T00:19:09;101604.16;;;6.14;78.02
60642;BME280;46837;52.446;-1.930;2023-01-29T00:20:09;101602.43;;;6.09;78.19
60642;BME280;46837;52.446;-1.930;2023-01-29T00:21:11;101601.07;;;6.13;78.23
60642;BME280;46837;52.446;-1.930;2023-01-29T00:22:09;101602.23;;;6.08;78.21
60642;BME280;46837;52.446;-1.930;2023-01-29T00:23:09;101599.38;;;6.08;78.35
60642;BME280;46837;52.446;-1.930;2023-01-29T00:24:09;101598.02;;;6.05;78.40
60642;BME280;46837;52.446;-1.930;2023-01-29T00:25:09;101598.79;;;6.06;78.46
60642;BME280;46837;52.446;-1.930;2023-01-29T00:26:09;101600.98;;;6.06;78.41
60642;BME280;46837;52.446;-1.930;2023-01-29T00:27:09;101602.51;;;6.02;78.46
60642;BME280;46837;52.446;-1.930;2023-01-29T00:28:09;101602.45;;;6.05;78.46
60642;BME280;46837;52.446;-1.930;2023-01-29T00:29:09;101601.70;;;6.01;78.59
60642;BME280;46837;52.446;-1.930;2023-01-29T00:30:14;101605.35;;;6.03;78.62
60642;BME280;46837;52.446;-1.930;2023-01-29T00:31:13;101602.34;;;6.03;78.54
60642;BME280;46837;52.446;-1.930;2023-01-29T00:32:09;101609.78;;;6.05;78.62
60642;BME280;46837;52.446;-1.930;2023-01-29T00:33:09;101608.66;;;6.01;78.64
60642;BME280;46837;52.446;-1.930;2023-01-29T00:34:09;101606.80;;;5.98;78.77
60642;BME280;46837;52.446;-1.930;2023-01-29T00:35:09;101609.16;;;5.98;78.81
60642;BME280;46837;52.446;-1.930;2023-01-29T00:36:09;101603.99;;;5.99;78.80
60642;BME280;46837;52.446;-1.930;2023-01-29T00:37:10;101603.85;;;6.03;78.73
60642;BME280;46837;52.446;-1.930;2023-01-29T00:38:09;101603.81;;;6.01;78.77
60642;BME280;46837;52.446;-1.930;2023-01-29T00:39:12;101603.04;;;6.01;78.87
60642;BME280;46837;52.446;-1.930;2023-01-29T00:40:09;101599.11;;;5.98;78.89
60642;BME280;46837;52.446;-1.930;2023-01-29T00:41:15;101600.96;;;5.93;78.98
60642;BME280;46837;52.446;-1.930;2023-01-29T00:42:13;101598.27;;;5.95;79.07
60642;BME280;46837;52.446;-1.930;2023-01-29T00:43:13;101599.88;;;5.91;79.07
60642;BME280;46837;52.446;-1.930;2023-01-29T00:44:13;101602.71;;;5.93;79.17
60642;BME280;46837;52.446;-1.930;2023-01-29T00:45:09;101603.58;;;5.92;79.16
60642;BME280;46837;52.446;-1.930;2023-01-29T00:46:09;101604.50;;;5.87;79.35
60642;BME280;46837;52.446;-1.930;2023-01-29T00:47:13;101606.64;;;5.91;79.43
60642;BME280;46837;52.446;-1.930;2023-01-29T00:48:09;101605.82;;;5.91;79.31
60642;BME280;46837;52.446;-1.930;2023-01-29T00:49:09;101606.88;;;5.91;79.21
60642;BME280;46837;52.446;-1.930;2023-01-29T00:50:10;101608.27;;;5.90;79.29
60642;BME280;46837;52.446;-1.930;2023-01-29T00:51:09;101604.04;;;5.81;79.59
60642;BME280;46837;52.446;-1.930;2023-01-29T00:52:13;101606.11;;;5.81;79.61
60642;BME280;46837;52.446;-1.930;2023-01-29T00:53:09;101605.70;;;5.80;79.61
60642;BME280;46837;52.446;-1.930;2023-01-29T00:54:09;101608.28;;;5.79;79.73
60642;BME280;46837;52.446;-1.930;2023-01-29T00:55:09;101602.65;;;5.80;79.76
60642;BME280;46837;52.446;-1.930;2023-01-29T00:56:09;101604.71;;;5.83;79.67
60642;BME280;46837;52.446;-1.930;2023-01-29T00:57:09;101605.31;;;5.87;79.60
60642;BME280;46837;52.446;-1.930;2023-01-29T00:58:09;101606.97;;;5.88;79.53
60642;BME280;46837;52.446;-1.930;2023-01-29T00:59:09;101604.55;;;5.83;79.71
60642;BME280;46837;52.446;-1.930;2023-01-29T01:00:13;101605.87;;;5.81;79.96
60642;BME280;46837;52.446;-1.930;2023-01-29T01:01:09;101603.43;;;5.80;80.07
60642;BME280;46837;52.446;-1.930;2023-01-29T01:02:13;101605.13;;;5.80;80.25
60642;BME280;46837;52.446;-1.930;2023-01-29T01:03:09;101606.92;;;5.81;80.34
60642;BME280;46837;52.446;-1.930;2023-01-29T01:04:09;101601.43;;;5.82;80.41
60642;BME280;46837;52.446;-1.930;2023-01-29T01:05:09;101599.00;;;5.77;80.66
60642;BME280;46837;52.446;-1.930;2023-01-29T01:06:09;101596.62;;;5.74;80.94
60642;BME280;46837;52.446;-1.930;2023-01-29T01:07:09;101595.41;;;5.71;81.08
60642;BME280;46837;52.446;-1.930;2023-01-29T01:08:15;101590.73;;;5.70;81.17
60642;BME280;46837;52.446;-1.930;2023-01-29T01:09:13;101590.16;;;5.70;81.33
60642;BME280;46837;52.446;-1.930;2023-01-29T01:10:22;101585.96;;;5.64;81.56
60642;BME280;46837;52.446;-1.930;2023-01-29T01:11:09;101587.55;;;5.63;81.65
60642;BME280;46837;52.446;-1.930;2023-01-29T01:12:09;101586.41;;;5.64;81.69
60642;BME280;46837;52.446;-1.930;2023-01-29T01:13:09;101584.36;;;5.56;82.09
60642;BME280;46837;52.446;-1.930;2023-01-29T01:14:09;101578.75;;;5.56;82.41
60642;BME280;46837;52.446;-1.930;2023-01-29T01:15:09;101572.00;;;5.56;82.33
60642;BME280;46837;52.446;-1.930;2023-01-29T01:16:11;101567.52;;;5.56;82.21
60642;BME280;46837;52.446;-1.930;2023-01-29T01:17:09;101569.80;;;5.55;82.19
60642;BME280;46837;52.446;-1.930;2023-01-29T01:18:09;101565.71;;;5.50;82.28
60642;BME280;46837;52.446;-1.930;2023-01-29T01:19:09;101563.04;;;5.47;82.37
60642;BME280;46837;52.446;-1.930;2023-01-29T01:20:09;101566.50;;;5.44;82.58
60642;BME280;46837;52.446;-1.930;2023-01-29T01:21:09;101564.44;;;5.43;82.54
60642;BME280;46837;52.446;-1.930;2023-01-29T01:22:09;101567.69;;;5.42;82.70
60642;BME280;46837;52.446;-1.930;2023-01-29T01:23:09;101566.43;;;5.42;82.51
60642;BME280;46837;52.446;-1.930;2023-01-29T01:24:09;101569.52;;;5.41;82.60
60642;BME280;46837;52.446;-1.930;2023-01-29T01:25:09;101570.36;;;5.34;82.65
60642;BME280;46837;52.446;-1.930;2023-01-29T01:26:09;101567.79;;;5.35;82.73
60642;BME280;46837;52.446;-1.930;2023-01-29T01:27:09;101568.94;;;5.30;82.78
60642;BME280;46837;52.446;-1.930;2023-01-29T01:28:09;101568.29;;;5.30;82.88
60642;BME280;46837;52.446;-1.930;2023-01-29T01:29:09;101569.04;;;5.26;82.96
60642;BME280;46837;52.446;-1.930;2023-01-29T01:30:12;101565.49;;;5.29;83.05
60642;BME280;46837;52.446;-1.930;2023-01-29T01:31:09;101562.61;;;5.28;83.03
60642;BME280;46837;52.446;-1.930;2023-01-29T01:32:09;101559.59;;;5.31;82.96
60642;BME280;46837;52.446;-1.930;2023-01-29T01:33:09;101558.33;;;5.33;82.98
60642;BME280;46837;52.446;-1.930;2023-01-29T01:34:09;101556.87;;;5.32;82.89
60642;BME280;46837;52.446;-1.930;2023-01-29T01:35:09;101557.84;;;5.33;82.95
60642;BME280;46837;52.446;-1.930;2023-01-29T01:36:11;101561.62;;;5.31;82.93
60642;BME280;46837;52.446;-1.930;2023-01-29T01:37:09;101560.88;;;5.35;82.95
60642;BME280;46837;52.446;-1.930;2023-01-29T01:38:09;101555.19;;;5.34;82.84
60642;BME280;46837;52.446;-1.930;2023-01-29T01:39:09;101552.38;;;5.35;82.97
60642;BME280;46837;52.446;-1.930;2023-01-29T01:40:17;101554.33;;;5.38;82.99
60642;BME280;46837;52.446;-1.930;2023-01-29T01:41:10;101549.16;;;5.37;82.84
60642;BME280;46837;52.446;-1.930;2023-01-29T01:42:12;101546.93;;;5.37;82.95
60642;BME280;46837;52.446;-1.930;2023-01-29T01:43:09;101548.63;;;5.39;82.97
60642;BME280;46837;52.446;-1.930;2023-01-29T01:46:09;101553.55;;;5.38;83.09
60642;BME280;46837;52.446;-1.930;2023-01-29T01:47:09;101550.46;;;5.38;82.99
60642;BME280;46837;52.446;-1.930;2023-01-29T01:48:16;101550.68;;;5.34;83.18
60642;BME280;46837;52.446;-1.930;2023-01-29T01:49:15;101551.65;;;5.35;83.30
60642;BME280;46837;52.446;-1.930;2023-01-29T01:50:17;101553.31;;;5.39;83.27
60642;BME280;46837;52.446;-1.930;2023-01-29T01:51:09;101552.70;;;5.39;83.28
60642;BME280;46837;52.446;-1.930;2023-01-29T01:52:09;101550.82;;;5.43;83.17
60642;BME280;46837;52.446;-1.930;2023-01-29T01:53:13;101548.05;;;5.41;83.20
60642;BME280;46837;52.446;-1.930;2023-01-29T01:54:13;101549.03;;;5.42;83.22
60642;BME280;46837;52.446;-1.930;2023-01-29T01:55:09;101544.43;;;5.44;83.27
60642;BME280;46837;52.446;-1.930;2023-01-29T01:56:12;101544.86;;;5.47;83.06
60642;BME280;46837;52.446;-1.930;2023-01-29T01:57:14;101545.40;;;5.46;83.03
60642;BME280;46837;52.446;-1.930;2023-01-29T01:58:13;101540.61;;;5.43;83.12
60642;BME280;46837;52.446;-1.930;2023-01-29T01:59:10;101538.89;;;5.34;83.48
60642;BME280;46837;52.446;-1.930;2023-01-29T02:00:14;101537.90;;;5.39;83.59
60642;BME280;46837;52.446;-1.930;2023-01-29T02:01:09;101538.70;;;5.42;83.41
60642;BME280;46837;52.446;-1.930;2023-01-29T02:02:13;101536.42;;;5.43;83.38
60642;BME280;46837;52.446;-1.930;2023-01-29T02:03:13;101529.52;;;5.40;83.26
60642;BME280;46837;52.446;-1.930;2023-01-29T02:04:17;101531.09;;;5.33;83.43
60642;BME280;46837;52.446;-1.930;2023-01-29T02:05:13;101531.16;;;5.34;83.65
60642;BME280;46837;52.446;-1.930;2023-01-29T02:06:13;101531.02;;;5.29;83.71
60642;BME280;46837;52.446;-1.930;2023-01-29T02:07:13;101531.14;;;5.30;83.76
60642;BME280;46837;52.446;-1.930;2023-01-29T02:08:13;101525.04;;;5.30;83.59
60642;BME280;46837;52.446;-1.930;2023-01-29T02:09:19;101527.67;;;5.22;83.82
60642;BME280;46837;52.446;-1.930;2023-01-29T02:10:13;101523.17;;;5.19;83.98
60642;BME280;46837;52.446;-1.930;2023-01-29T02:11:09;101525.73;;;5.18;84.20
60642;BME280;46837;52.446;-1.930;2023-01-29T02:12:10;101527.44;;;5.19;84.15
60642;BME280;46837;52.446;-1.930;2023-01-29T02:13:09;101526.10;;;5.17;84.02
60642;BME280;46837;52.446;-1.930;2023-01-29T02:14:09;101529.43;;;5.19;84.16
60642;BME280;46837;52.446;-1.930;2023-01-29T02:15:09;101526.11;;;5.15;84.50
60642;BME280;46837;52.446;-1.930;2023-01-29T02:16:09;101525.19;;;5.21;84.37
60642;BME280;46837;52.446;-1.930;2023-01-29T02:17:10;101520.51;;;5.24;84.17
60642;BME280;46837;52.446;-1.930;2023-01-29T02:18:09;101521.49;;;5.21;84.24
60642;BME280;46837;52.446;-1.930;2023-01-29T02:19:31;101522.74;;;5.25;84.26
60642;BME280;46837;52.446;-1.930;2023-01-29T02:20:18;101523.78;;;5.30;84.26
60642;BME280;46837;52.446;-1.930;2023-01-29T02:26:21;101511.84;;;5.37;84.06
60642;BME280;46837;52.446;-1.930;2023-01-29T02:31:19;101511.04;;;5.35;84.44
60642;BME280;46837;52.446;-1.930;2023-01-29T02:32:19;101504.75;;;5.33;84.31
60642;BME280;46837;52.446;-1.930;2023-01-29T02:33:18;101503.56;;;5.34;84.34
60642;BME280;46837;52.446;-1.930;2023-01-29T02:36:18;101498.83;;;5.37;84.16
60642;BME280;46837;52.446;-1.930;2023-01-29T02:37:09;101495.38;;;5.37;84.31
60642;BME280;46837;52.446;-1.930;2023-01-29T02:38:20;101495.70;;;5.40;84.26
60642;BME280;46837;52.446;-1.930;2023-01-29T02:41:20;101481.82;;;5.41;84.35
60642;BME280;46837;52.446;-1.930;2023-01-29T02:42:17;101477.55;;;5.41;84.29
60642;BME280;46837;52.446;-1.930;2023-01-29T02:44:17;101480.56;;;5.43;84.31
60642;BME280;46837;52.446;-1.930;2023-01-29T02:45:14;101477.74;;;5.46;84.20
60642;BME280;46837;52.446;-1.930;2023-01-29T02:48:12;101472.89;;;5.38;84.45
60642;BME280;46837;52.446;-1.930;2023-01-29T02:50:18;101473.01;;;5.40;84.69
60642;BME280;46837;52.446;-1.930;2023-01-29T02:51:18;101476.63;;;5.38;84.61
60642;BME280;46837;52.446;-1.930;2023-01-29T02:53:14;101470.96;;;5.35;84.89
60642;BME280;46837;52.446;-1.930;2023-01-29T02:54:17;101470.41;;;5.38;84.86
60642;BME280;46837;52.446;-1.930;2023-01-29T02:55:12;101465.29;;;5.40;84.80
60642;BME280;46837;52.446;-1.930;2023-01-29T02:56:16;101455.46;;;5.36;84.77
60642;BME280;46837;52.446;-1.930;2023-01-29T02:58:20;101456.94;;;5.43;84.58
60642;BME280;46837;52.446;-1.930;2023-01-29T02:59:11;101455.50;;;5.47;84.59
60642;BME280;46837;52.446;-1.930;2023-01-29T03:02:13;101456.75;;;5.47;84.57
60642;BME280;46837;52.446;-1.930;2023-01-29T03:03:14;101456.02;;;5.48;84.58
60642;BME280;46837;52.446;-1.930;2023-01-29T03:04:12;101461.12;;;5.43;84.60
60642;BME280;46837;52.446;-1.930;2023-01-29T03:05:12;101464.12;;;5.46;84.79
60642;BME280;46837;52.446;-1.930;2023-01-29T03:06:18;101467.82;;;5.44;84.65
60642;BME280;46837;52.446;-1.930;2023-01-29T03:07:09;101461.38;;;5.41;84.84
60642;BME280;46837;52.446;-1.930;2023-01-29T03:08:10;101457.31;;;5.42;84.97
60642;BME280;46837;52.446;-1.930;2023-01-29T03:09:15;101455.56;;;5.41;84.96
60642;BME280;46837;52.446;-1.930;2023-01-29T03:11:09;101450.06;;;5.43;84.89
60642;BME280;46837;52.446;-1.930;2023-01-29T03:12:21;101451.40;;;5.44;84.85
60642;BME280;46837;52.446;-1.930;2023-01-29T03:14:15;101448.14;;;5.46;84.92
60642;BME280;46837;52.446;-1.930;2023-01-29T03:15:19;101447.71;;;5.49;84.72
60642;BME280;46837;52.446;-1.930;2023-01-29T03:16:35;101447.45;;;5.46;84.71
60642;BME280;46837;52.446;-1.930;2023-01-29T03:17:09;101446.12;;;5.51;84.72
60642;BME280;46837;52.446;-1.930;2023-01-29T03:18:14;101448.41;;;5.49;84.53
60642;BME280;46837;52.446;-1.930;2023-01-29T03:19:14;101444.38;;;5.48;84.58
60642;BME280;46837;52.446;-1.930;2023-01-29T03:20:11;101451.00;;;5.51;84.63
60642;BME280;46837;52.446;-1.930;2023-01-29T03:21:18;101450.19;;;5.50;84.48
60642;BME280;46837;52.446;-1.930;2023-01-29T03:22:09;101449.05;;;5.51;84.46
60642;BME280;46837;52.446;-1.930;2023-01-29T03:23:10;101449.66;;;5.50;84.39
60642;BME280;46837;52.446;-1.930;2023-01-29T03:24:13;101450.15;;;5.50;84.30
60642;BME280;46837;52.446;-1.930;2023-01-29T03:25:15;101454.39;;;5.48;84.20
60642;BME280;46837;52.446;-1.930;2023-01-29T03:26:14;101459.45;;;5.45;84.32
60642;BME280;46837;52.446;-1.930;2023-01-29T03:27:13;101453.13;;;5.48;84.38
60642;BME280;46837;52.446;-1.930;2023-01-29T03:28:14;101454.18;;;5.50;84.27
60642;BME280;46837;52.446;-1.930;2023-01-29T03:29:13;101454.20;;;5.53;84.16
60642;BME280;46837;52.446;-1.930;2023-01-29T03:30:14;101451.43;;;5.53;84.03
60642;BME280;46837;52.446;-1.930;2023-01-29T03:31:13;101452.12;;;5.53;83.97
60642;BME280;46837;52.446;-1.930;2023-01-29T03:32:11;101448.63;;;5.53;84.00
60642;BME280;46837;52.446;-1.930;2023-01-29T03:33:09;101446.61;;;5.51;84.04
60642;BME280;46837;52.446;-1.930;2023-01-29T03:34:11;101442.25;;;5.53;84.08
60642;BME280;46837;52.446;-1.930;2023-01-29T03:35:10;101443.73;;;5.55;84.02
60642;BME280;46837;52.446;-1.930;2023-01-29T03:36:20;101440.02;;;5.58;83.89
60642;BME280;46837;52.446;-1.930;2023-01-29T03:38:09;101444.08;;;5.60;83.83
60642;BME280;46837;52.446;-1.930;2023-01-29T03:39:09;101440.72;;;5.57;83.80
60642;BME280;46837;52.446;-1.930;2023-01-29T03:40:09;101439.03;;;5.61;83.93
60642;BME280;46837;52.446;-1.930;2023-01-29T03:41:21;101430.82;;;5.60;83.76
60642;BME280;46837;52.446;-1.930;2023-01-29T03:43:12;101435.89;;;5.62;83.48
60642;BME280;46837;52.446;-1.930;2023-01-29T03:45:15;101436.16;;;5.57;83.48
60642;BME280;46837;52.446;-1.930;2023-01-29T03:46:18;101433.52;;;5.58;83.63
60642;BME280;46837;52.446;-1.930;2023-01-29T03:47:17;101430.18;;;5.51;83.52
60642;BME280;46837;52.446;-1.930;2023-01-29T03:49:16;101430.82;;;5.46;83.92
60642;BME280;46837;52.446;-1.930;2023-01-29T03:50:22;101433.71;;;5.45;83.99
60642;BME280;46837;52.446;-1.930;2023-01-29T03:51:19;101434.11;;;5.46;84.05
60642;BME280;46837;52.446;-1.930;2023-01-29T03:53:16;101436.20;;;5.51;83.99
60642;BME280;46837;52.446;-1.930;2023-01-29T03:57:15;101437.45;;;5.52;84.05
60642;BME280;46837;52.446;-1.930;2023-01-29T04:00:15;101434.74;;;5.56;84.08
60642;BME280;46837;52.446;-1.930;2023-01-29T04:01:17;101432.97;;;5.54;84.08
60642;BME280;46837;52.446;-1.930;2023-01-29T04:02:12;101430.49;;;5.53;84.23
60642;BME280;46837;52.446;-1.930;2023-01-29T04:04:20;101424.82;;;5.51;84.41
60642;BME280;46837;52.446;-1.930;2023-01-29T04:05:15;101422.89;;;5.52;84.37
60642;BME280;46837;52.446;-1.930;2023-01-29T04:06:17;101424.39;;;5.53;84.48
60642;BME280;46837;52.446;-1.930;2023-01-29T04:07:12;101419.23;;;5.47;84.42
60642;BME280;46837;52.446;-1.930;2023-01-29T04:08:10;101419.12;;;5.51;84.68
60642;BME280;46837;52.446;-1.930;2023-01-29T04:09:15;101423.01;;;5.54;84.60
60642;BME280;46837;52.446;-1.930;2023-01-29T04:10:12;101423.48;;;5.56;84.41
60642;BME280;46837;52.446;-1.930;2023-01-29T04:11:13;101420.89;;;5.59;84.36
60642;BME280;46837;52.446;-1.930;2023-01-29T04:12:10;101417.48;;;5.60;84.34
60642;BME280;46837;52.446;-1.930;2023-01-29T04:13:12;101418.11;;;5.63;84.21
60642;BME280;46837;52.446;-1.930;2023-01-29T04:14:09;101416.32;;;5.63;84.24
60642;BME280;46837;52.446;-1.930;2023-01-29T04:15:11;101417.52;;;5.66;84.24
60642;BME280;46837;52.446;-1.930;2023-01-29T04:16:11;101414.49;;;5.62;84.25
60642;BME280;46837;52.446;-1.930;2023-01-29T04:17:17;101415.75;;;5.63;84.44
60642;BME280;46837;52.446;-1.930;2023-01-29T04:18:09;101418.50;;;5.66;84.31
60642;BME280;46837;52.446;-1.930;2023-01-29T04:19:09;101417.27;;;5.67;84.22
60642;BME280;46837;52.446;-1.930;2023-01-29T04:20:09;101417.74;;;5.64;84.14
60642;BME280;46837;52.446;-1.930;2023-01-29T04:21:09;101416.31;;;5.65;84.23
60642;BME280;46837;52.446;-1.930;2023-01-29T04:24:09;101411.35;;;5.58;84.41
60642;BME280;46837;52.446;-1.930;2023-01-29T04:25:15;101405.24;;;5.53;84.54
60642;BME280;46837;52.446;-1.930;2023-01-29T04:28:18;101398.43;;;5.50;84.98
60642;BME280;46837;52.446;-1.930;2023-01-29T04:29:20;101400.06;;;5.49;84.98
60642;BME280;46837;52.446;-1.930;2023-01-29T04:31:09;101399.70;;;5.55;84.83
60642;BME280;46837;52.446;-1.930;2023-01-29T04:32:17;101405.65;;;5.58;84.62
60642;BME280;46837;52.446;-1.930;2023-01-29T04:37:16;101391.84;;;5.50;84.72
60642;BME280;46837;52.446;-1.930;2023-01-29T04:41:19;101386.45;;;5.54;84.65
60642;BME280;46837;52.446;-1.930;2023-01-29T04:43:16;101385.89;;;5.52;84.77
60642;BME280;46837;52.446;-1.930;2023-01-29T04:44:17;101387.17;;;5.56;84.77
60642;BME280;46837;52.446;-1.930;2023-01-29T04:45:17;101385.20;;;5.53;84.66
60642;BME280;46837;52.446;-1.930;2023-01-29T04:46:16;101383.45;;;5.51;84.80
60642;BME280;46837;52.446;-1.930;2023-01-29T04:47:17;101383.61;;;5.53;84.77
60642;BME280;46837;52.446;-1.930;2023-01-29T04:48:19;101384.28;;;5.55;84.67
60642;BME280;46837;52.446;-1.930;2023-01-29T04:53:18;101373.20;;;5.52;84.60
60642;BME280;46837;52.446;-1.930;2023-01-29T04:57:22;101366.48;;;5.36;85.41
60642;BME280;46837;52.446;-1.930;2023-01-29T04:59:18;101365.61;;;5.37;85.23
60642;BME280;46837;52.446;-1.930;2023-01-29T05:00:15;101366.89;;;5.41;85.14
60642;BME280;46837;52.446;-1.930;2023-01-29T05:01:11;101364.76;;;5.37;85.07
60642;BME280;46837;52.446;-1.930;2023-01-29T05:02:09;101364.27;;;5.37;85.16
60642;BME280;46837;52.446;-1.930;2023-01-29T05:03:12;101360.50;;;5.36;85.21
60642;BME280;46837;52.446;-1.930;2023-01-29T05:04:11;101359.49;;;5.41;85.16
60642;BME280;46837;52.446;-1.930;2023-01-29T05:05:09;101363.97;;;5.40;85.10
60642;BME280;46837;52.446;-1.930;2023-01-29T05:06:20;101361.41;;;5.40;85.09
60642;BME280;46837;52.446;-1.930;2023-01-29T05:08:19;101360.81;;;5.38;85.28
60642;BME280;46837;52.446;-1.930;2023-01-29T05:09:17;101354.21;;;5.40;85.24
60642;BME280;46837;52.446;-1.930;2023-01-29T05:10:09;101350.02;;;5.41;85.09
60642;BME280;46837;52.446;-1.930;2023-01-29T05:11:09;101352.93;;;5.43;85.07
60642;BME280;46837;52.446;-1.930;2023-01-29T05:12:09;101351.59;;;5.43;85.01
60642;BME280;46837;52.446;-1.930;2023-01-29T05:13:12;101348.47;;;5.42;85.05
60642;BME280;46837;52.446;-1.930;2023-01-29T05:14:11;101350.66;;;5.42;85.15
60642;BME280;46837;52.446;-1.930;2023-01-29T05:15:11;101352.03;;;5.44;85.05
60642;BME280;46837;52.446;-1.930;2023-01-29T05:16:16;101350.34;;;5.42;85.06
60642;BME280;46837;52.446;-1.930;2023-01-29T05:17:17;101351.82;;;5.39;85.10
60642;BME280;46837;52.446;-1.930;2023-01-29T05:18:10;101351.62;;;5.39;85.33
60642;BME280;46837;52.446;-1.930;2023-01-29T05:19:13;101345.20;;;5.44;85.37
60642;BME280;46837;52.446;-1.930;2023-01-29T05:20:09;101343.59;;;5.42;85.17
60642;BME280;46837;52.446;-1.930;2023-01-29T05:21:09;101344.76;;;5.44;85.19
60642;BME280;46837;52.446;-1.930;2023-01-29T05:22:10;101337.84;;;5.44;85.15
60642;BME280;46837;52.446;-1.930;2023-01-29T05:23:16;101339.56;;;5.48;85.11
60642;BME280;46837;52.446;-1.930;2023-01-29T05:26:09;101334.98;;;5.52;84.94
60642;BME280;46837;52.446;-1.930;2023-01-29T05:27:18;101334.73;;;5.53;84.83
60642;BME280;46837;52.446;-1.930;2023-01-29T05:28:13;101334.86;;;5.52;84.71
60642;BME280;46837;52.446;-1.930;2023-01-29T05:29:09;101339.78;;;5.52;84.72
60642;BME280;46837;52.446;-1.930;2023-01-29T05:30:09;101336.05;;;5.50;84.75
60642;BME280;46837;52.446;-1.930;2023-01-29T05:31:09;101340.86;;;5.48;84.87
60642;BME280;46837;52.446;-1.930;2023-01-29T05:32:09;101339.46;;;5.44;84.93
60642;BME280;46837;52.446;-1.930;2023-01-29T05:34:09;101331.12;;;5.40;85.10
60642;BME280;46837;52.446;-1.930;2023-01-29T05:35:09;101331.92;;;5.43;85.18
60642;BME280;46837;52.446;-1.930;2023-01-29T05:36:09;101328.38;;;5.43;85.09
60642;BME280;46837;52.446;-1.930;2023-01-29T05:37:09;101328.27;;;5.47;84.96
60642;BME280;46837;52.446;-1.930;2023-01-29T05:38:09;101326.88;;;5.48;84.88
60642;BME280;46837;52.446;-1.930;2023-01-29T05:39:09;101327.66;;;5.47;84.92
60642;BME280;46837;52.446;-1.930;2023-01-29T05:40:10;101324.21;;;5.46;84.97
60642;BME280;46837;52.446;-1.930;2023-01-29T05:41:09;101322.57;;;5.47;84.97
60642;BME280;46837;52.446;-1.930;2023-01-29T05:42:09;101321.92;;;5.41;85.11
60642;BME280;46837;52.446;-1.930;2023-01-29T05:43:19;101318.03;;;5.45;85.27
60642;BME280;46837;52.446;-1.930;2023-01-29T05:44:09;101315.07;;;5.44;85.19
60642;BME280;46837;52.446;-1.930;2023-01-29T05:45:09;101311.36;;;5.45;85.20
60642;BME280;46837;52.446;-1.930;2023-01-29T05:46:09;101309.27;;;5.48;85.15
60642;BME280;46837;52.446;-1.930;2023-01-29T05:47:09;101309.48;;;5.52;85.00
60642;BME280;46837;52.446;-1.930;2023-01-29T05:48:09;101313.65;;;5.50;84.82
60642;BME280;46837;52.446;-1.930;2023-01-29T05:49:09;101312.37;;;5.52;84.83
60642;BME280;46837;52.446;-1.930;2023-01-29T05:50:09;101310.70;;;5.53;84.75
60642;BME280;46837;52.446;-1.930;2023-01-29T05:51:09;101313.95;;;5.53;84.68
60642;BME280;46837;52.446;-1.930;2023-01-29T05:52:09;101306.91;;;5.49;84.72
60642;BME280;46837;52.446;-1.930;2023-01-29T05:53:09;101307.61;;;5.47;84.86
60642;BME280;46837;52.446;-1.930;2023-01-29T05:54:10;101305.43;;;5.46;85.01
60642;BME280;46837;52.446;-1.930;2023-01-29T05:55:09;101305.83;;;5.46;85.02
60642;BME280;46837;52.446;-1.930;2023-01-29T05:56:09;101304.88;;;5.48;85.04
60642;BME280;46837;52.446;-1.930;2023-01-29T05:57:09;101304.48;;;5.46;85.01
60642;BME280;46837;52.446;-1.930;2023-01-29T05:58:09;101303.31;;;5.46;85.12
60642;BME280;46837;52.446;-1.930;2023-01-29T05:59:09;101300.58;;;5.46;85.20
60642;BME280;46837;52.446;-1.930;2023-01-29T06:00:09;101304.92;;;5.48;85.15
60642;BME280;46837;52.446;-1.930;2023-01-29T06:01:16;101302.23;;;5.49;85.17
60642;BME280;46837;52.446;-1.930;2023-01-29T06:02:09;101301.30;;;5.48;85.23
60642;BME280;46837;52.446;-1.930;2023-01-29T06:03:09;101308.35;;;5.51;85.22
60642;BME280;46837;52.446;-1.930;2023-01-29T06:04:09;101304.17;;;5.50;85.19
60642;BME280;46837;52.446;-1.930;2023-01-29T06:05:09;101301.66;;;5.44;85.42
60642;BME280;46837;52.446;-1.930;2023-01-29T06:06:09;101304.61;;;5.47;85.64
60642;BME280;46837;52.446;-1.930;2023-01-29T06:07:09;101304.16;;;5.47;85.45
60642;BME280;46837;52.446;-1.930;2023-01-29T06:08:09;101302.82;;;5.52;85.40
60642;BME280;46837;52.446;-1.930;2023-01-29T06:09:09;101301.67;;;5.53;85.16
60642;BME280;46837;52.446;-1.930;2023-01-29T06:10:09;101297.16;;;5.52;85.25
60642;BME280;46837;52.446;-1.930;2023-01-29T06:11:10;101293.66;;;5.52;85.17
60642;BME280;46837;52.446;-1.930;2023-01-29T06:12:09;101293.49;;;5.54;85.09
60642;BME280;46837;52.446;-1.930;2023-01-29T06:13:09;101288.78;;;5.53;85.03
60642;BME280;46837;52.446;-1.930;2023-01-29T06:14:09;101289.80;;;5.52;85.06